Time;durP1;ratioP1;P1;durP2;ratioP2;P2;SDS_P1;SDS_P2;PMS_P1;PMS_P2;Temp;Humidity;BMP_temperature;BMP_pressure;BME280_temperature;BME280_humidity;BME280_pressure;Samples;Min_cycle;Max_cycle;Signal;HPM_P1;HPM_P2
2022/01/28 00:03:00;;;;;;;22.80;3.67;;;;;;;3.86;100.00;102390.00;10430750;28;20056;-78
2022/01/28 00:08:01;;;;;;;21.35;4.82;;;;;;;3.81;100.00;102423.22;10372992;28;20447;-80
2022/01/28 00:39:21;;;;;;;18.17;3.58;;;;;;;3.95;100.00;102460.69;10391863;28;20060;-77
2022/01/28 00:44:21;;;;;;;33.25;4.25;;;;;;;3.98;100.00;102448.56;10431357;28;20041;-77
2022/01/28 00:49:22;;;;;;;15.68;3.55;;;;;;;3.91;100.00;102474.81;10404090;28;20052;-78
2022/01/28 00:54:22;;;;;;;17.92;2.85;;;;;;;3.68;100.00;102463.72;10436496;28;20037;-80
2022/01/28 00:59:23;;;;;;;15.75;3.05;;;;;;;3.55;100.00;102472.41;10420040;28;20045;-80
2022/01/28 01:04:24;;;;;;;18.25;2.60;;;;;;;3.64;100.00;102494.03;10436173;28;20049;-79
2022/01/28 01:09:25;;;;;;;21.65;3.33;;;;;;;3.70;100.00;102500.69;10435725;28;20496;-77
2022/01/28 01:14:25;;;;;;;19.10;3.65;;;;;;;3.80;100.00;102501.38;10435749;28;20041;-78
2022/01/28 01:19:30;;;;;;;29.73;5.93;;;;;;;3.97;100.00;102490.44;10437264;28;20030;-80
2022/01/28 01:24:36;;;;;;;22.15;3.63;;;;;;;3.88;100.00;102518.75;10435581;28;20068;-77
2022/01/28 01:29:41;;;;;;;14.10;2.35;;;;;;;3.62;100.00;102519.75;10401911;28;20032;-79
2022/01/28 01:34:42;;;;;;;19.25;3.78;;;;;;;3.53;100.00;102547.97;10433796;28;20040;-77
2022/01/28 01:39:42;;;;;;;16.48;2.95;;;;;;;3.41;100.00;102559.19;10419459;28;20400;-79
2022/01/28 01:45:57;;;;;;;20.40;2.65;;;;;;;3.28;100.00;102566.94;10436596;28;20030;-78
2022/01/28 01:55:32;;;;;;;19.35;3.03;;;;;;;3.36;100.00;102590.63;10434143;28;20093;-77
2022/01/28 02:00:32;;;;;;;22.98;4.82;;;;;;;3.61;100.00;102594.28;10432762;28;20041;-80
2022/01/28 02:05:33;;;;;;;28.60;4.80;;;;;;;3.68;100.00;102579.00;10365225;28;20122;-78
2022/01/28 02:10:34;;;;;;;26.98;4.05;;;;;;;3.81;100.00;102598.44;10376849;28;20454;-79
2022/01/28 02:15:34;;;;;;;25.52;3.92;;;;;;;3.81;100.00;102605.75;10376687;28;20030;-78
2022/01/28 02:20:37;;;;;;;22.52;3.22;;;;;;;3.91;100.00;102627.41;10392764;28;20030;-80
2022/01/28 02:25:38;;;;;;;18.05;3.30;;;;;;;3.90;100.00;102642.03;10385067;28;20084;-79
2022/01/28 02:30:38;;;;;;;26.88;3.97;;;;;;;3.97;100.00;102657.56;10392167;28;20096;-77
2022/01/28 02:35:41;;;;;;;20.00;4.38;;;;;;;4.02;100.00;102673.41;10393408;28;20068;-78
2022/01/28 02:40:46;;;;;;;26.83;6.10;;;;;;;3.89;100.00;102649.38;10375303;28;20371;-79
2022/01/28 02:45:48;;;;;;;20.55;4.50;;;;;;;3.92;100.00;102664.53;10412023;28;20060;-78
2022/01/28 02:56:16;;;;;;;24.15;4.78;;;;;;;4.04;100.00;102668.66;10424236;28;20053;-79
2022/01/28 03:01:17;;;;;;;26.80;5.28;;;;;;;4.06;100.00;102658.44;10416815;28;20040;-78
2022/01/28 03:06:19;;;;;;;21.40;4.88;;;;;;;4.21;100.00;102678.53;10393666;28;20422;-81
2022/01/28 03:16:23;;;;;;;22.02;3.58;;;;;;;4.21;100.00;102694.91;10390255;28;20053;-80
2022/01/28 03:26:30;;;;;;;;;;;;;;;4.42;100.00;102699.03;10391504;28;20036;-78
2022/01/28 03:31:30;;;;;;;22.52;3.78;;;;;;;4.46;100.00;102714.03;10447247;28;19921;-78
2022/01/28 03:36:31;;;;;;;31.98;4.53;;;;;;;4.54;100.00;102718.66;10389455;28;20021;-80
2022/01/28 03:41:32;;;;;;;17.48;2.85;;;;;;;4.62;100.00;102724.97;10389867;28;20026;-78
2022/01/28 03:46:32;;;;;;;13.50;2.90;;;;;;;4.65;100.00;102732.81;10390709;28;20831;-79
2022/01/28 03:51:32;;;;;;;19.33;4.10;;;;;;;4.67;100.00;102748.16;10372553;28;20056;-80
2022/01/28 03:56:33;;;;;;;17.70;4.07;;;;;;;4.68;100.00;102750.72;10390021;28;20054;-77
2022/01/28 04:01:37;;;;;;;18.33;3.22;;;;;;;4.75;100.00;102748.16;10413263;28;20101;-82
2022/01/28 04:11:58;;;;;;;17.17;2.80;;;;;;;4.80;100.00;102759.44;10415233;28;20040;-79
2022/01/28 04:22:19;;;;;;;18.02;4.38;;;;;;;4.30;100.00;102761.25;10427930;28;20090;-79
2022/01/28 04:27:19;;;;;;;20.33;3.97;;;;;;;4.19;100.00;102767.81;10412690;28;20029;-78
2022/01/28 04:32:20;;;;;;;21.13;3.78;;;;;;;4.39;100.00;102789.38;10430599;28;20021;-77
2022/01/28 04:37:40;;;;;;;21.92;3.50;;;;;;;4.56;100.00;102796.56;10396047;28;20037;-80
2022/01/28 04:42:56;;;;;;;26.67;5.03;;;;;;;4.63;100.00;102774.91;10428246;28;20123;-80
2022/01/28 04:48:15;;;;;;;21.08;4.22;;;;;;;4.61;100.00;102783.28;10414229;28;20115;-76
2022/01/28 04:53:32;;;;;;;24.45;4.15;;;;;;;4.74;100.00;102795.59;10428690;28;20282;-82
2022/01/28 05:03:58;;;;;;;20.25;3.75;;;;;;;4.59;100.00;102822.69;10428592;28;20109;-83
2022/01/28 05:09:28;;;;;;;29.33;4.75;;;;;;;4.36;100.00;102823.28;10426868;28;20116;-83
2022/01/28 05:25:26;;;;;;;38.40;6.93;;;;;;;4.47;100.00;102878.56;10372808;28;20121;-84
2022/01/28 05:30:14;;;;;;;24.35;4.03;;;;;;;4.53;100.00;102877.91;10387859;28;20445;-81
2022/01/28 05:35:15;;;;;;;23.85;5.72;;;;;;;4.04;100.00;102780.41;10361817;28;20034;-83
2022/01/28 05:40:15;;;;;;;25.13;4.30;;;;;;;4.61;100.00;102867.84;10375595;28;20033;-86
2022/01/28 05:45:16;;;;;;;42.40;6.80;;;;;;;4.57;100.00;102863.75;10377292;28;20034;-84
2022/01/28 05:50:16;;;;;;;19.90;4.20;;;;;;;4.40;100.00;102843.75;10377424;28;20037;-81
2022/01/28 05:55:17;;;;;;;23.80;4.40;;;;;;;4.58;100.00;102892.72;10392819;28;20041;-83
2022/01/28 06:00:18;;;;;;;32.47;6.57;;;;;;;4.63;100.00;102923.13;10360924;28;20072;-84
2022/01/28 06:05:18;;;;;;;23.50;4.55;;;;;;;4.59;100.00;102938.09;10416470;28;20112;-84
2022/01/28 06:10:19;;;;;;;25.13;3.83;;;;;;;4.65;100.00;102942.91;10400549;28;20029;-85
2022/01/28 06:15:19;;;;;;;25.17;4.30;;;;;;;4.58;100.00;102950.03;10417084;28;20029;-82
2022/01/28 06:20:21;;;;;;;31.00;4.45;;;;;;;4.48;100.00;102956.63;10417128;28;20034;-84
2022/01/28 06:25:21;;;;;;;25.88;5.38;;;;;;;4.44;100.00;102976.06;10432709;28;20036;-78
2022/01/28 06:30:22;;;;;;;26.58;5.40;;;;;;;4.36;100.00;102986.03;10432891;28;20045;-86
2022/01/28 06:35:23;;;;;;;23.00;4.40;;;;;;;4.29;100.00;102985.84;10415657;28;20037;-83
2022/01/28 06:40:23;;;;;;;34.00;5.55;;;;;;;4.36;100.00;102988.75;10391053;28;20034;-85
2022/01/28 06:45:24;;;;;;;25.60;4.40;;;;;;;4.42;100.00;102969.03;10391415;28;20022;-81
2022/01/28 06:50:24;;;;;;;23.63;4.00;;;;;;;4.47;100.00;102972.13;10375425;28;20022;-80
2022/01/28 06:55:24;;;;;;;21.20;4.65;;;;;;;4.50;100.00;102990.91;10392073;28;20045;-79
2022/01/28 07:00:25;;;;;;;25.42;3.60;;;;;;;4.44;100.00;102997.00;10406485;28;20072;-79
2022/01/28 07:05:25;;;;;;;19.23;3.35;;;;;;;4.42;100.00;103001.75;10414580;28;20037;-79
2022/01/28 07:10:26;;;;;;;25.30;4.40;;;;;;;4.40;100.00;103009.25;10431618;28;20037;-80
2022/01/28 07:15:27;;;;;;;30.60;5.07;;;;;;;4.35;100.00;102996.09;10431675;28;20044;-80
2022/01/28 07:20:29;;;;;;;30.42;5.78;;;;;;;4.34;100.00;103007.16;10415244;28;20614;-78
2022/01/28 07:25:29;;;;;;;21.15;3.80;;;;;;;4.37;100.00;103015.88;10414270;28;20072;-80
2022/01/28 07:30:31;;;;;;;22.55;5.57;;;;;;;4.30;100.00;103027.59;10413219;28;20059;-80
2022/01/28 07:35:32;;;;;;;21.38;4.30;;;;;;;4.17;100.00;103026.13;10395829;28;20042;-81
2022/01/28 07:40:32;;;;;;;21.77;5.63;;;;;;;4.03;100.00;103034.88;10389421;28;20214;-81
2022/01/28 07:45:33;;;;;;;24.13;5.45;;;;;;;3.94;100.00;103049.47;10389535;28;20157;-80
2022/01/28 07:50:33;;;;;;;20.13;3.45;;;;;;;3.95;100.00;103051.16;10389391;28;20026;-79
2022/01/28 07:55:34;;;;;;;27.92;3.60;;;;;;;3.90;100.00;103045.34;10388933;28;20022;-80
2022/01/28 08:00:34;;;;;;;31.15;4.82;;;;;;;3.92;100.00;103052.34;10403962;28;20038;-81
2022/01/28 08:05:35;;;;;;;24.70;4.07;;;;;;;3.63;100.00;103030.78;10412577;28;20033;-81
2022/01/28 08:10:35;;;;;;;18.10;5.07;;;;;;;3.77;100.00;103079.28;10429281;28;20478;-81
2022/01/28 08:15:39;;;;;;;23.60;4.68;;;;;;;3.69;100.00;103098.28;10430271;28;20040;-80
2022/01/28 08:20:39;;;;;;;23.05;3.78;;;;;;;3.71;100.00;103103.56;10429102;28;20532;-80
2022/01/28 08:25:40;;;;;;;24.30;7.47;;;;;;;3.77;100.00;103116.56;10429611;28;20049;-80
2022/01/28 08:30:40;;;;;;;24.67;3.80;;;;;;;3.93;100.00;103100.41;10429147;28;20033;-80
2022/01/28 08:35:41;;;;;;;16.90;3.70;;;;;;;3.97;100.00;103103.66;10394384;28;20030;-80
2022/01/28 08:40:42;;;;;;;28.00;4.10;;;;;;;4.08;100.00;103125.22;10371249;28;20034;-80
2022/01/28 08:45:42;;;;;;;28.75;5.20;;;;;;;4.28;100.00;103146.88;10387783;28;20076;-79
2022/01/28 08:50:43;;;;;;;30.92;5.40;;;;;;;4.49;100.00;103155.59;10387564;28;20034;-80
2022/01/28 08:55:43;;;;;;;28.02;4.20;;;;;;;4.70;100.00;103151.66;10386947;28;20096;-80
2022/01/28 09:00:47;;;;;;;23.63;4.35;;;;;;;4.68;100.00;103142.78;10393153;28;20057;-81
2022/01/28 09:05:47;;;;;;;32.15;4.10;;;;;;;4.83;100.00;103130.25;10433141;28;20366;-80
2022/01/28 09:10:59;;;;;;;30.90;3.45;;;;;;;4.98;100.00;103144.16;10407985;28;20041;-80
2022/01/28 09:15:59;;;;;;;28.90;3.72;;;;;;;4.68;100.00;103104.56;10394573;28;20540;-80
2022/01/28 09:21:00;;;;;;;20.35;3.25;;;;;;;4.91;100.00;103157.59;10394553;28;20040;-80
2022/01/28 09:26:01;;;;;;;22.80;4.35;;;;;;;4.84;100.00;103165.56;10377916;28;20088;-81
2022/01/28 09:31:01;;;;;;;24.80;3.75;;;;;;;5.19;100.00;103190.22;10378163;28;20065;-80
2022/01/28 09:36:02;;;;;;;31.60;3.65;;;;;;;5.39;100.00;103191.66;10366563;28;20029;-79
2022/01/28 09:41:04;;;;;;;32.83;6.43;;;;;;;5.51;100.00;103200.44;10412892;28;20093;-80
2022/01/28 09:46:05;;;;;;;29.15;3.65;;;;;;;5.57;100.00;103198.94;10383917;28;20059;-79
2022/01/28 09:51:05;;;;;;;36.03;6.97;;;;;;;5.66;100.00;103204.28;10415078;28;20064;-81
2022/01/28 09:56:06;;;;;;;23.48;3.58;;;;;;;5.66;100.00;103208.84;10433537;28;20034;-82
2022/01/28 10:01:06;;;;;;;19.77;4.63;;;;;;;5.62;100.00;103205.63;10434861;28;20041;-81
2022/01/28 10:06:07;;;;;;;30.30;5.80;;;;;;;5.77;100.00;103211.31;10416793;28;20491;-81
2022/01/28 10:11:10;;;;;;;20.38;4.13;;;;;;;5.94;100.00;103205.91;10413762;28;20417;-80
2022/01/28 10:16:22;;;;;;;27.70;4.82;;;;;;;6.20;100.00;103211.28;10415175;28;20152;-79
2022/01/28 10:21:30;;;;;;;17.38;3.22;;;;;;;6.46;100.00;103222.09;10407944;28;20025;-81
2022/01/28 10:26:43;;;;;;;27.40;5.85;;;;;;;6.72;100.00;103221.97;10432273;28;20126;-81
2022/01/28 10:31:47;;;;;;;26.92;4.65;;;;;;;6.22;100.00;103250.25;10432268;28;20619;-80
2022/01/28 10:36:49;;;;;;;26.73;4.30;;;;;;;5.88;100.00;103251.16;10431974;28;20030;-82
2022/01/28 10:41:54;;;;;;;18.75;3.03;;;;;;;5.77;100.00;103246.00;10416633;28;20053;-81
2022/01/28 10:46:57;;;;;;;19.00;3.67;;;;;;;5.96;100.00;103253.09;10415812;28;20044;-82
2022/01/28 10:52:13;;;;;;;24.23;4.78;;;;;;;6.36;100.00;103248.75;10382997;28;20120;-82
2022/01/28 10:57:14;;;;;;;25.35;4.35;;;;;;;6.90;100.00;103221.75;10382892;28;20117;-81
2022/01/28 11:02:14;;;;;;;22.20;4.53;;;;;;;7.32;100.00;103206.97;10431040;28;20084;-82
2022/01/28 11:07:15;;;;;;;24.73;4.28;;;;;;;7.24;100.00;103204.25;10382263;28;20326;-83
2022/01/28 11:12:16;;;;;;;19.42;3.40;;;;;;;7.35;100.00;103206.63;10398782;28;20312;-82
2022/01/28 11:17:17;;;;;;;26.15;3.67;;;;;;;7.53;100.00;103197.31;10430768;28;20056;-82
2022/01/28 11:22:46;;;;;;;18.60;3.95;;;;;;;7.51;100.00;103194.75;10430909;28;20021;-82
2022/01/28 11:27:47;;;;;;;19.13;3.25;;;;;;;7.39;100.00;103186.03;10429645;28;20044;-81
2022/01/28 11:33:08;;;;;;;18.30;3.72;;;;;;;7.34;100.00;103183.00;10431045;28;20025;-80
2022/01/28 11:38:24;;;;;;;17.88;3.58;;;;;;;7.06;100.00;103186.13;10431197;28;20041;-81
2022/01/28 11:43:30;;;;;;;16.92;4.45;;;;;;;7.02;100.00;103186.66;10431665;28;20032;-83
2022/01/28 11:48:53;;;;;;;18.30;3.73;;;;;;;7.01;100.00;103198.66;10413876;28;20022;-83
2022/01/28 11:53:55;;;;;;;22.20;3.10;;;;;;;7.33;100.00;103214.16;10430995;28;20037;-81
2022/01/28 11:59:04;;;;;;;21.30;2.97;;;;;;;7.25;100.00;103205.94;10430797;28;20122;-82
2022/01/28 12:09:27;;;;;;;22.08;3.33;;;;;;;7.08;100.00;103184.06;10423335;28;20037;-84
2022/01/28 12:20:15;;;;;;;16.90;4.10;;;;;;;7.38;100.00;103184.34;10429065;28;20025;-84
2022/01/28 12:25:40;;;;;;;20.38;4.57;;;;;;;7.06;100.00;103180.66;10415691;28;20426;-84
2022/01/28 12:30:58;;;;;;;17.27;3.63;;;;;;;7.08;100.00;103175.00;10451619;28;20055;-85
2022/01/28 12:36:00;;;;;;;19.63;4.85;;;;;;;6.96;100.00;103160.81;10456078;28;20033;-76
2022/01/28 12:41:07;;;;;;;24.60;3.72;;;;;;;7.34;100.00;103139.16;10459750;28;20052;-76
2022/01/28 12:46:12;;;;;;;16.63;2.75;;;;;;;7.23;100.00;103140.38;10462757;28;20494;-75
2022/01/28 12:51:13;;;;;;;19.88;3.30;;;;;;;6.93;100.00;103136.53;10462779;28;20139;-76
2022/01/28 12:56:16;;;;;;;17.52;3.30;;;;;;;7.96;100.00;103142.94;10430993;28;20039;-76
2022/01/28 13:01:18;;;;;;;22.85;3.13;;;;;;;8.46;100.00;103134.19;10416634;28;20049;-76
2022/01/28 13:11:46;;;;;;;13.43;4.20;;;;;;;7.35;100.00;103127.16;10422356;28;20092;-77
2022/01/28 13:16:47;;;;;;;22.52;3.40;;;;;;;7.30;100.00;103135.06;10419879;28;20061;-77
2022/01/28 13:21:49;;;;;;;36.70;4.47;;;;;;;6.98;100.00;103123.16;10418786;28;20029;-77
2022/01/28 13:26:53;;;;;;;13.63;3.00;;;;;;;7.36;100.00;103123.38;10419088;28;20038;-77
2022/01/28 13:31:56;;;;;;;17.38;2.85;;;;;;;7.00;100.00;103137.53;10393867;28;20022;-77
2022/01/28 13:36:59;;;;;;;18.38;3.38;;;;;;;6.91;100.00;103133.13;10393181;28;20097;-77
2022/01/28 13:42:07;;;;;;;35.65;6.68;;;;;;;6.76;100.00;103152.16;10393992;28;20461;-77
2022/01/28 13:47:09;;;;;;;16.52;3.85;;;;;;;6.62;100.00;103145.47;10393501;28;20034;-77
2022/01/28 13:52:17;;;;;;;21.00;4.53;;;;;;;6.49;100.00;103139.69;10391911;28;20303;-75
2022/01/28 13:57:17;;;;;;;23.40;3.95;;;;;;;6.57;100.00;103142.38;10377424;28;20037;-76
2022/01/28 14:02:18;;;;;;;19.15;3.92;;;;;;;6.80;100.00;103149.88;10422158;28;20041;-76
2022/01/28 14:07:20;;;;;;;27.83;5.18;;;;;;;6.96;100.00;103136.16;10417272;28;20037;-75
2022/01/28 14:12:42;;;;;;;17.42;2.83;;;;;;;6.55;100.00;103135.38;10423122;28;20033;-78
2022/01/28 14:17:42;;;;;;;12.30;2.75;;;;;;;6.47;100.00;103153.53;10419287;28;20041;-77
2022/01/28 14:22:43;;;;;;;14.23;2.90;;;;;;;6.45;100.00;103141.06;10433179;28;20030;-77
2022/01/28 14:32:44;;;;;;;17.15;2.80;;;;;;;6.26;100.00;103134.88;10414843;28;20420;-77
2022/01/28 14:37:45;;;;;;;17.42;4.13;;;;;;;6.32;100.00;103141.53;10415811;28;20056;-77
2022/01/28 14:42:45;;;;;;;12.43;2.42;;;;;;;6.52;100.00;103138.47;10455473;28;20040;-76
2022/01/28 14:47:46;;;;;;;25.10;4.15;;;;;;;6.32;100.00;103099.66;10439721;28;20393;-76
2022/01/28 14:52:47;;;;;;;21.85;3.10;;;;;;;6.43;100.00;103134.91;10456867;28;20048;-76
2022/01/28 14:57:47;;;;;;;18.15;3.47;;;;;;;6.31;100.00;103125.31;10437112;28;20411;-76
2022/01/28 15:02:48;;;;;;;16.92;2.83;;;;;;;6.20;100.00;103119.16;10454789;28;20052;-76
2022/01/28 15:07:48;;;;;;;18.50;3.33;;;;;;;6.12;100.00;103113.69;10456056;28;20499;-77
2022/01/28 15:12:49;;;;;;;21.73;2.95;;;;;;;6.04;100.00;103124.59;10438972;28;20056;-77
2022/01/28 15:17:49;;;;;;;17.23;4.13;;;;;;;5.93;100.00;103123.00;10455235;28;20021;-77
2022/01/28 15:22:50;;;;;;;21.10;4.10;;;;;;;5.75;100.00;103106.75;10439391;28;20053;-77
2022/01/28 15:27:51;;;;;;;22.15;4.38;;;;;;;5.78;100.00;103111.88;10458961;28;20128;-77
2022/01/28 15:38:11;;;;;;;24.83;3.33;;;;;;;5.66;100.00;103118.66;10450845;28;20071;-75
2022/01/28 15:43:11;;;;;;;17.83;2.97;;;;;;;5.58;100.00;103113.19;10403114;28;20499;-76
2022/01/28 15:48:12;;;;;;;19.65;4.45;;;;;;;5.49;100.00;103115.03;10436824;28;20041;-76
2022/01/28 15:53:12;;;;;;;10.85;3.42;;;;;;;5.32;100.00;103081.34;10436106;28;20477;-76
2022/01/28 15:58:13;;;;;;;16.15;3.58;;;;;;;5.31;100.00;103104.19;10434461;28;20054;-76
2022/01/28 16:03:14;;;;;;;17.52;3.95;;;;;;;5.23;100.00;103098.75;10456064;28;20036;-77
2022/01/28 16:08:16;;;;;;;9.05;2.33;;;;;;;5.15;100.00;103085.06;10431591;28;20029;-76
2022/01/28 16:13:27;;;;;;;15.05;3.22;;;;;;;5.09;100.00;103091.16;10436607;28;20025;-77
2022/01/28 16:18:28;;;;;;;11.43;2.72;;;;;;;5.05;100.00;103094.22;10420488;28;20049;-77
2022/01/28 16:23:28;;;;;;;18.67;3.13;;;;;;;5.02;100.00;103090.94;10420610;28;20032;-77
2022/01/28 16:28:29;;;;;;;17.40;3.13;;;;;;;4.95;100.00;103079.81;10436086;28;20119;-77
2022/01/28 16:33:29;;;;;;;14.88;2.30;;;;;;;4.91;100.00;103077.59;10453238;28;20032;-77
2022/01/28 16:38:30;;;;;;;13.95;2.55;;;;;;;4.87;100.00;103079.78;10397446;28;20390;-77
2022/01/28 16:43:31;;;;;;;16.30;3.80;;;;;;;4.84;100.00;103082.84;10400437;28;20018;-77
2022/01/28 16:48:31;;;;;;;18.65;3.42;;;;;;;4.69;100.00;103057.16;10392478;28;20388;-77
2022/01/28 16:53:32;;;;;;;13.10;3.88;;;;;;;4.60;100.00;103059.84;10399910;28;20052;-77
2022/01/28 16:58:32;;;;;;;16.73;3.25;;;;;;;4.46;100.00;103030.41;10396081;28;20671;-77
2022/01/28 17:03:33;;;;;;;20.98;3.72;;;;;;;4.41;100.00;103035.50;10455272;28;20072;-77
2022/01/28 17:08:33;;;;;;;13.00;3.00;;;;;;;4.27;100.00;103020.59;10417607;28;20029;-77
2022/01/28 17:13:34;;;;;;;18.75;3.50;;;;;;;4.24;100.00;103027.22;10419321;28;20029;-77
2022/01/28 17:18:34;;;;;;;9.20;2.28;;;;;;;4.26;100.00;103040.72;10419824;28;20029;-77
2022/01/28 17:23:35;;;;;;;18.38;3.42;;;;;;;4.09;100.00;103015.16;10435340;28;20029;-76
2022/01/28 17:28:36;;;;;;;20.02;3.70;;;;;;;4.22;100.00;103012.88;10425439;28;20039;-77
2022/01/28 17:33:36;;;;;;;18.00;2.97;;;;;;;4.25;100.00;102998.06;10444960;28;20037;-77
2022/01/28 17:38:37;;;;;;;14.13;3.63;;;;;;;4.02;100.00;102948.69;10393279;28;20097;-77
2022/01/28 17:43:38;;;;;;;20.48;3.13;;;;;;;4.25;100.00;102979.00;10399864;28;20099;-77
2022/01/28 17:48:38;;;;;;;14.82;3.25;;;;;;;4.18;100.00;102972.47;10397720;28;20064;-77
2022/01/28 17:53:38;;;;;;;26.85;5.00;;;;;;;4.19;100.00;102976.91;10396825;28;20045;-77
2022/01/28 17:58:39;;;;;;;20.42;3.65;;;;;;;4.27;100.00;102965.19;10413358;28;20045;-77
2022/01/28 18:03:40;;;;;;;20.27;4.13;;;;;;;4.31;100.00;102951.06;10399633;28;20036;-77
2022/01/28 18:08:40;;;;;;;23.38;5.97;;;;;;;4.31;100.00;102929.25;10412687;28;20032;-78
2022/01/28 18:13:41;;;;;;;16.80;3.00;;;;;;;4.33;100.00;102920.94;10412905;28;20536;-80
2022/01/28 18:18:41;;;;;;;17.80;3.45;;;;;;;4.34;100.00;102908.97;10415357;28;20040;-78
2022/01/28 18:23:42;;;;;;;12.73;2.53;;;;;;;4.32;100.00;102892.81;10412063;28;20033;-78
2022/01/28 18:28:42;;;;;;;10.35;2.33;;;;;;;4.33;100.00;102874.56;10432619;28;20034;-78
2022/01/28 18:33:43;;;;;;;22.73;5.32;;;;;;;4.36;100.00;102882.41;10412777;28;20025;-78
2022/01/28 18:38:48;;;;;;;23.40;4.38;;;;;;;4.40;100.00;102864.69;10411005;28;20034;-78
2022/01/28 18:43:50;;;;;;;21.55;3.38;;;;;;;4.49;100.00;102871.91;10413916;28;20025;-78
2022/01/28 18:48:51;;;;;;;13.75;2.42;;;;;;;4.50;100.00;102851.78;10382071;28;20028;-78
2022/01/28 18:53:52;;;;;;;15.52;2.95;;;;;;;4.49;100.00;102855.53;10396295;28;20026;-78
2022/01/28 18:58:52;;;;;;;11.88;2.85;;;;;;;4.46;100.00;102842.22;10396230;28;20045;-79
2022/01/28 19:03:53;;;;;;;18.13;2.83;;;;;;;4.51;100.00;102856.22;10412733;28;20078;-77
2022/01/28 19:08:53;;;;;;;17.42;2.83;;;;;;;4.57;100.00;102862.91;10395862;28;20036;-77
2022/01/28 19:13:54;;;;;;;16.67;4.00;;;;;;;4.61;100.00;102856.06;10396492;28;20048;-77
2022/01/28 19:18:54;;;;;;;21.63;5.22;;;;;;;4.63;100.00;102852.19;10429285;28;20025;-77
2022/01/28 19:23:55;;;;;;;7.97;3.25;;;;;;;4.70;100.00;102856.97;10429210;28;20021;-77
2022/01/28 19:28:56;;;;;;;24.17;5.15;;;;;;;4.80;100.00;102853.06;10397393;28;20052;-78
2022/01/28 19:33:56;;;;;;;13.30;4.15;;;;;;;4.87;100.00;102858.69;10431483;28;20037;-77
2022/01/28 19:38:56;;;;;;;7.95;2.42;;;;;;;4.90;100.00;102830.22;10429512;28;20033;-78
2022/01/28 19:43:57;;;;;;;17.90;2.97;;;;;;;4.84;100.00;102810.78;10429945;28;20045;-78
2022/01/28 19:49:06;;;;;;;12.15;2.55;;;;;;;4.93;100.00;102811.63;10412565;28;20052;-78
2022/01/28 19:54:07;;;;;;;13.55;3.35;;;;;;;5.00;100.00;102803.59;10399114;28;20458;-78
2022/01/28 19:59:08;;;;;;;12.32;3.00;;;;;;;4.98;100.00;102778.34;10380120;28;20071;-77
2022/01/28 20:04:10;;;;;;;13.90;3.25;;;;;;;5.05;100.00;102793.88;10413141;28;20052;-77
2022/01/28 20:09:10;;;;;;;13.60;4.47;;;;;;;5.05;100.00;102782.97;10428855;28;20025;-77
2022/01/28 20:14:11;;;;;;;15.10;4.38;;;;;;;5.08;100.00;102775.47;10412445;28;20029;-83
2022/01/28 20:19:11;;;;;;;17.20;4.90;;;;;;;5.07;100.00;102792.88;10412696;28;20033;-77
2022/01/28 20:24:12;;;;;;;13.90;5.50;;;;;;;5.03;100.00;102786.91;10395580;28;20025;-77
2022/01/28 20:29:12;;;;;;;17.77;8.27;;;;;;;5.13;100.00;102797.66;10428505;28;20034;-78
2022/01/28 20:34:13;;;;;;;26.88;9.55;;;;;;;5.18;100.00;102784.34;10412123;28;20042;-77
2022/01/28 20:39:13;;;;;;;24.73;8.88;;;;;;;5.26;100.00;102781.59;10411142;28;20490;-77
2022/01/28 20:44:14;;;;;;;22.13;8.70;;;;;;;5.26;100.00;102784.31;10428355;28;20461;-77
2022/01/28 20:49:15;;;;;;;34.08;10.98;;;;;;;5.29;100.00;102770.31;10410152;28;20025;-77
2022/01/28 20:54:15;;;;;;;22.90;9.70;;;;;;;5.38;100.00;102780.22;10409226;28;20470;-78
2022/01/28 20:59:16;;;;;;;22.20;11.40;;;;;;;5.39;100.00;102770.13;10426057;28;20045;-76
2022/01/28 21:04:16;;;;;;;25.60;11.65;;;;;;;5.45;100.00;102742.97;10433417;28;20069;-77
2022/01/28 21:09:17;;;;;;;27.15;12.90;;;;;;;5.41;100.00;102732.56;10459659;28;21148;-77
2022/01/28 21:14:17;;;;;;;28.73;13.50;;;;;;;5.46;100.00;102731.03;10427579;28;20079;-77
2022/01/28 21:19:18;;;;;;;26.45;14.18;;;;;;;5.47;100.00;102723.69;10455623;28;20040;-77
2022/01/28 21:24:19;;;;;;;30.13;14.60;;;;;;;5.41;100.00;102689.72;10434989;28;20042;-77
2022/01/28 21:29:19;;;;;;;35.92;16.75;;;;;;;5.45;100.00;102692.97;10418869;28;20051;-80
2022/01/28 21:34:20;;;;;;;26.58;15.18;;;;;;;5.53;100.00;102683.88;10435355;28;20048;-77
2022/01/28 21:39:20;;;;;;;47.53;20.17;;;;;;;5.55;100.00;102673.63;10420476;28;20041;-77
2022/01/28 21:44:20;;;;;;;40.08;19.83;;;;;;;5.53;100.00;102662.88;10451199;28;20050;-76
2022/01/28 21:49:21;;;;;;;40.50;20.67;;;;;;;5.56;100.00;102664.41;10435452;28;20032;-76
2022/01/28 21:54:21;;;;;;;47.10;21.13;;;;;;;5.55;100.00;102638.13;10455303;28;20386;-76
2022/01/28 21:59:22;;;;;;;49.45;21.85;;;;;;;5.54;100.00;102641.88;10459012;28;20040;-77
2022/01/28 22:04:23;;;;;;;48.35;22.35;;;;;;;5.59;100.00;102634.00;10441799;28;20160;-76
2022/01/28 22:09:23;;;;;;;43.47;20.95;;;;;;;5.58;100.00;102621.34;10409049;28;20624;-77
2022/01/28 22:14:24;;;;;;;37.08;20.52;;;;;;;5.64;100.00;102623.38;10461096;28;20036;-76
2022/01/28 22:19:24;;;;;;;49.40;21.95;;;;;;;5.68;100.00;102608.31;10441239;28;20033;-76
2022/01/28 22:24:25;;;;;;;49.35;21.00;;;;;;;5.72;100.00;102606.09;10474467;28;20093;-75
2022/01/28 22:29:25;;;;;;;42.50;21.08;;;;;;;5.73;100.00;102607.81;10457434;28;20029;-76
2022/01/28 22:34:26;;;;;;;44.58;20.40;;;;;;;5.71;100.00;102594.31;10424168;28;20032;-75
2022/01/28 22:39:26;;;;;;;39.92;20.67;;;;;;;5.76;100.00;102591.03;10473962;28;20036;-74
2022/01/28 22:44:27;;;;;;;43.55;22.05;;;;;;;5.78;100.00;102598.03;10440551;28;20029;-76
2022/01/28 22:49:27;;;;;;;37.33;20.83;;;;;;;5.78;100.00;102572.56;10436764;28;20528;-77
2022/01/28 22:54:27;;;;;;;43.10;20.90;;;;;;;5.81;100.00;102567.59;10432078;28;20029;-76
2022/01/28 22:59:28;;;;;;;36.30;20.20;;;;;;;5.81;100.00;102548.47;10432901;28;20057;-77
2022/01/28 23:04:29;;;;;;;44.10;19.10;;;;;;;5.78;100.00;102535.16;10431818;28;20112;-76
2022/01/28 23:09:29;;;;;;;39.78;19.23;;;;;;;5.83;100.00;102527.28;10398506;28;20030;-76
2022/01/28 23:14:30;;;;;;;46.08;22.05;;;;;;;5.78;100.00;102518.75;10432662;28;20037;-76
2022/01/28 23:19:30;;;;;;;38.67;19.48;;;;;;;5.91;100.00;102509.09;10398212;28;20029;-75
2022/01/28 23:24:31;;;;;;;41.05;18.52;;;;;;;5.85;100.00;102497.88;10412299;28;20462;-77
2022/01/28 23:29:31;;;;;;;41.30;19.30;;;;;;;5.94;100.00;102495.06;10413592;28;20044;-76
2022/01/28 23:34:32;;;;;;;48.13;21.42;;;;;;;5.90;100.00;102477.34;10430181;28;20050;-76
2022/01/28 23:39:32;;;;;;;45.78;21.10;;;;;;;5.83;100.00;102466.31;10399927;28;20548;-75
2022/01/28 23:44:33;;;;;;;40.10;21.02;;;;;;;5.78;100.00;102457.78;10419436;28;20025;-74
2022/01/28 23:49:33;;;;;;;42.75;22.38;;;;;;;5.75;100.00;102448.09;10430423;28;20369;-74
2022/01/28 23:54:34;;;;;;;52.22;22.38;;;;;;;5.81;100.00;102424.63;10396870;28;20041;-76
2022/01/28 23:59:34;;;;;;;50.47;23.75;;;;;;;5.76;100.00;102427.91;10412699;28;20409;-73
